sensor_id;sensor_type;location;lat;lon;timestamp;P1;durP1;ratioP1;P2;durP2;ratioP2
46377;SDS011;32083;47.360;9.650;2024-03-02T05:02:46;20.23;;;13.50;;
46377;SDS011;32083;47.360;9.650;2024-03-02T05:05:12;20.50;;;13.48;;
46377;SDS011;32083;47.360;9.650;2024-03-02T05:07:40;16.42;;;13.18;;
46377;SDS011;32083;47.360;9.650;2024-03-02T05:10:09;19.90;;;13.90;;
46377;SDS011;32083;47.360;9.650;2024-03-02T05:12:36;16.17;;;12.95;;
46377;SDS011;32083;47.360;9.650;2024-03-02T05:15:09;19.30;;;14.73;;
46377;SDS011;32083;47.360;9.650;2024-03-02T05:17:36;22.10;;;16.42;;
46377;SDS011;32083;47.360;9.650;2024-03-02T05:20:06;21.17;;;14.57;;
46377;SDS011;32083;47.360;9.650;2024-03-02T05:22:36;18.25;;;14.70;;
46377;SDS011;32083;47.360;9.650;2024-03-02T05:25:03;23.65;;;15.02;;
46377;SDS011;32083;47.360;9.650;2024-03-02T05:27:30;17.70;;;12.85;;
46377;SDS011;32083;47.360;9.650;2024-03-02T05:29:58;18.15;;;14.77;;
46377;SDS011;32083;47.360;9.650;2024-03-02T05:32:24;17.83;;;12.68;;
46377;SDS011;32083;47.360;9.650;2024-03-02T05:37:23;19.75;;;14.05;;
46377;SDS011;32083;47.360;9.650;2024-03-02T05:39:49;19.83;;;14.48;;
46377;SDS011;32083;47.360;9.650;2024-03-02T05:42:15;17.00;;;14.18;;
46377;SDS011;32083;47.360;9.650;2024-03-02T05:44:44;17.73;;;13.55;;
46377;SDS011;32083;47.360;9.650;2024-03-02T05:47:10;16.75;;;13.43;;
46377;SDS011;32083;47.360;9.650;2024-03-02T05:49:36;21.35;;;14.25;;
46377;SDS011;32083;47.360;9.650;2024-03-02T05:52:02;17.35;;;13.63;;
46377;SDS011;32083;47.360;9.650;2024-03-02T05:54:28;18.77;;;15.57;;
46377;SDS011;32083;47.360;9.650;2024-03-02T05:56:54;19.88;;;13.70;;
46377;SDS011;32083;47.360;9.650;2024-03-02T05:59:20;16.52;;;13.75;;
46377;SDS011;32083;47.360;9.650;2024-03-02T06:01:46;15.75;;;12.40;;
46377;SDS011;32083;47.360;9.650;2024-03-02T06:04:13;15.23;;;12.60;;
46377;SDS011;32083;47.360;9.650;2024-03-02T06:06:40;18.33;;;14.18;;
46377;SDS011;32083;47.360;9.650;2024-03-02T06:09:06;18.23;;;13.70;;
46377;SDS011;32083;47.360;9.650;2024-03-02T06:11:36;18.65;;;14.88;;
46377;SDS011;32083;47.360;9.650;2024-03-02T06:14:04;18.25;;;14.40;;
46377;SDS011;32083;47.360;9.650;2024-03-02T06:16:30;20.13;;;13.50;;
46377;SDS011;32083;47.360;9.650;2024-03-02T06:18:57;16.13;;;13.98;;
46377;SDS011;32083;47.360;9.650;2024-03-02T06:21:23;19.48;;;14.50;;
46377;SDS011;32083;47.360;9.650;2024-03-02T06:23:50;14.88;;;13.27;;
46377;SDS011;32083;47.360;9.650;2024-03-02T06:26:16;17.50;;;14.85;;
46377;SDS011;32083;47.360;9.650;2024-03-02T06:28:43;16.85;;;14.00;;
46377;SDS011;32083;47.360;9.650;2024-03-02T06:31:09;16.52;;;14.43;;
46377;SDS011;32083;47.360;9.650;2024-03-02T06:33:35;21.25;;;15.07;;
46377;SDS011;32083;47.360;9.650;2024-03-02T06:36:02;22.75;;;16.20;;
46377;SDS011;32083;47.360;9.650;2024-03-02T06:38:28;20.65;;;16.08;;
46377;SDS011;32083;47.360;9.650;2024-03-02T06:40:54;17.27;;;14.40;;
46377;SDS011;32083;47.360;9.650;2024-03-02T06:43:20;17.25;;;13.88;;
46377;SDS011;32083;47.360;9.650;2024-03-02T06:45:52;20.67;;;15.52;;
46377;SDS011;32083;47.360;9.650;2024-03-02T06:48:18;22.00;;;16.25;;
46377;SDS011;32083;47.360;9.650;2024-03-02T06:50:49;17.80;;;15.45;;
46377;SDS011;32083;47.360;9.650;2024-03-02T06:53:15;20.13;;;16.55;;
46377;SDS011;32083;47.360;9.650;2024-03-02T06:55:46;20.75;;;14.82;;
46377;SDS011;32083;47.360;9.650;2024-03-02T06:58:15;19.08;;;15.60;;
46377;SDS011;32083;47.360;9.650;2024-03-02T07:00:41;20.17;;;15.00;;
46377;SDS011;32083;47.360;9.650;2024-03-02T07:03:07;28.48;;;20.48;;
46377;SDS011;32083;47.360;9.650;2024-03-02T07:05:34;32.80;;;26.08;;
46377;SDS011;32083;47.360;9.650;2024-03-02T07:08:00;30.38;;;22.90;;
46377;SDS011;32083;47.360;9.650;2024-03-02T07:10:27;27.20;;;20.92;;
46377;SDS011;32083;47.360;9.650;2024-03-02T07:12:53;26.77;;;22.08;;
46377;SDS011;32083;47.360;9.650;2024-03-02T07:15:19;21.13;;;17.15;;
46377;SDS011;32083;47.360;9.650;2024-03-02T07:18:04;19.85;;;15.90;;
46377;SDS011;32083;47.360;9.650;2024-03-02T07:20:30;25.55;;;16.58;;
46377;SDS011;32083;47.360;9.650;2024-03-02T07:22:56;21.80;;;16.08;;
46377;SDS011;32083;47.360;9.650;2024-03-02T07:25:22;17.52;;;14.65;;
46377;SDS011;32083;47.360;9.650;2024-03-02T07:27:48;15.68;;;13.55;;
46377;SDS011;32083;47.360;9.650;2024-03-02T07:30:14;15.82;;;12.90;;
46377;SDS011;32083;47.360;9.650;2024-03-02T07:32:43;17.02;;;15.10;;
46377;SDS011;32083;47.360;9.650;2024-03-02T07:35:11;19.63;;;13.27;;
46377;SDS011;32083;47.360;9.650;2024-03-02T07:37:38;16.30;;;13.50;;
46377;SDS011;32083;47.360;9.650;2024-03-02T07:40:05;15.13;;;12.18;;
46377;SDS011;32083;47.360;9.650;2024-03-02T07:42:34;14.63;;;11.93;;
46377;SDS011;32083;47.360;9.650;2024-03-02T07:45:00;15.23;;;12.18;;
46377;SDS011;32083;47.360;9.650;2024-03-02T07:47:26;13.82;;;10.95;;
46377;SDS011;32083;47.360;9.650;2024-03-02T07:49:52;14.48;;;11.85;;
46377;SDS011;32083;47.360;9.650;2024-03-02T07:52:18;13.38;;;11.15;;
46377;SDS011;32083;47.360;9.650;2024-03-02T07:54:50;14.45;;;10.52;;
46377;SDS011;32083;47.360;9.650;2024-03-02T07:57:16;14.27;;;11.13;;
46377;SDS011;32083;47.360;9.650;2024-03-02T07:59:42;11.82;;;10.23;;
46377;SDS011;32083;47.360;9.650;2024-03-02T08:02:08;15.40;;;11.02;;
46377;SDS011;32083;47.360;9.650;2024-03-02T08:04:35;13.25;;;10.50;;
46377;SDS011;32083;47.360;9.650;2024-03-02T08:07:03;11.05;;;9.32;;
46377;SDS011;32083;47.360;9.650;2024-03-02T08:09:29;10.98;;;9.07;;
46377;SDS011;32083;47.360;9.650;2024-03-02T08:11:55;12.23;;;10.27;;
46377;SDS011;32083;47.360;9.650;2024-03-02T08:14:23;11.10;;;9.48;;
46377;SDS011;32083;47.360;9.650;2024-03-02T08:16:49;9.18;;;8.23;;
46377;SDS011;32083;47.360;9.650;2024-03-02T08:19:15;11.50;;;9.63;;
46377;SDS011;32083;47.360;9.650;2024-03-02T08:21:42;15.43;;;10.02;;
46377;SDS011;32083;47.360;9.650;2024-03-02T08:24:09;11.00;;;8.73;;
46377;SDS011;32083;47.360;9.650;2024-03-02T08:26:35;11.73;;;10.20;;
46377;SDS011;32083;47.360;9.650;2024-03-02T08:29:01;11.70;;;8.90;;
46377;SDS011;32083;47.360;9.650;2024-03-02T08:31:28;12.95;;;10.65;;
46377;SDS011;32083;47.360;9.650;2024-03-02T08:33:55;11.55;;;10.18;;
46377;SDS011;32083;47.360;9.650;2024-03-02T08:36:22;12.40;;;10.43;;
46377;SDS011;32083;47.360;9.650;2024-03-02T08:38:49;10.45;;;7.68;;
46377;SDS011;32083;47.360;9.650;2024-03-02T08:41:15;8.50;;;7.07;;
46377;SDS011;32083;47.360;9.650;2024-03-02T08:43:41;8.27;;;6.80;;
46377;SDS011;32083;47.360;9.650;2024-03-02T08:46:08;7.95;;;6.18;;
46377;SDS011;32083;47.360;9.650;2024-03-02T08:48:34;6.95;;;5.53;;
46377;SDS011;32083;47.360;9.650;2024-03-02T08:51:00;5.28;;;4.78;;
46377;SDS011;32083;47.360;9.650;2024-03-02T08:53:26;6.45;;;5.45;;
46377;SDS011;32083;47.360;9.650;2024-03-02T08:55:52;6.75;;;6.05;;
46377;SDS011;32083;47.360;9.650;2024-03-02T08:58:20;7.15;;;6.45;;
46377;SDS011;32083;47.360;9.650;2024-03-02T09:07:20;6.40;;;5.80;;
46377;SDS011;32083;47.360;9.650;2024-03-02T09:09:46;5.70;;;5.10;;
46377;SDS011;32083;47.360;9.650;2024-03-02T09:12:12;7.68;;;5.47;;
46377;SDS011;32083;47.360;9.650;2024-03-02T09:14:38;8.35;;;5.45;;
46377;SDS011;32083;47.360;9.650;2024-03-02T09:17:04;7.93;;;5.30;;
46377;SDS011;32083;47.360;9.650;2024-03-02T09:19:30;5.30;;;4.80;;
46377;SDS011;32083;47.360;9.650;2024-03-02T09:21:56;7.63;;;4.40;;
46377;SDS011;32083;47.360;9.650;2024-03-02T09:24:23;5.43;;;4.65;;
46377;SDS011;32083;47.360;9.650;2024-03-02T09:26:49;5.10;;;4.50;;
46377;SDS011;32083;47.360;9.650;2024-03-02T09:29:15;5.72;;;5.22;;
46377;SDS011;32083;47.360;9.650;2024-03-02T09:31:42;6.32;;;5.43;;
46377;SDS011;32083;47.360;9.650;2024-03-02T09:34:08;7.43;;;5.15;;
46377;SDS011;32083;47.360;9.650;2024-03-02T09:36:34;6.13;;;4.93;;
46377;SDS011;32083;47.360;9.650;2024-03-02T09:39:00;6.78;;;5.40;;
46377;SDS011;32083;47.360;9.650;2024-03-02T09:41:29;7.00;;;5.55;;
46377;SDS011;32083;47.360;9.650;2024-03-02T09:43:55;3.28;;;2.42;;
46377;SDS011;32083;47.360;9.650;2024-03-02T09:46:22;2.70;;;2.30;;
46377;SDS011;32083;47.360;9.650;2024-03-02T09:48:48;3.22;;;2.60;;
46377;SDS011;32083;47.360;9.650;2024-03-02T09:51:14;5.10;;;2.47;;
46377;SDS011;32083;47.360;9.650;2024-03-02T09:53:44;8.75;;;6.40;;
46377;SDS011;32083;47.360;9.650;2024-03-02T09:56:12;7.70;;;5.00;;
46377;SDS011;32083;47.360;9.650;2024-03-02T09:58:38;8.02;;;5.38;;
46377;SDS011;32083;47.360;9.650;2024-03-02T10:01:05;7.55;;;5.82;;
46377;SDS011;32083;47.360;9.650;2024-03-02T10:03:31;6.40;;;5.65;;
46377;SDS011;32083;47.360;9.650;2024-03-02T10:08:45;6.70;;;4.93;;
46377;SDS011;32083;47.360;9.650;2024-03-02T10:11:11;5.15;;;4.38;;
46377;SDS011;32083;47.360;9.650;2024-03-02T10:14:04;5.55;;;4.60;;
46377;SDS011;32083;47.360;9.650;2024-03-02T10:16:38;4.60;;;3.60;;
46377;SDS011;32083;47.360;9.650;2024-03-02T10:21:47;2.85;;;2.58;;
46377;SDS011;32083;47.360;9.650;2024-03-02T10:24:15;3.33;;;2.80;;
46377;SDS011;32083;47.360;9.650;2024-03-02T10:26:44;5.50;;;2.90;;
46377;SDS011;32083;47.360;9.650;2024-03-02T10:29:11;3.88;;;2.40;;
46377;SDS011;32083;47.360;9.650;2024-03-02T10:31:37;3.08;;;2.50;;
46377;SDS011;32083;47.360;9.650;2024-03-02T10:34:04;2.03;;;1.77;;
46377;SDS011;32083;47.360;9.650;2024-03-02T10:36:32;2.13;;;1.70;;
46377;SDS011;32083;47.360;9.650;2024-03-02T10:39:05;3.80;;;2.30;;
46377;SDS011;32083;47.360;9.650;2024-03-02T10:41:35;2.42;;;1.38;;
46377;SDS011;32083;47.360;9.650;2024-03-02T10:44:03;3.40;;;2.13;;
46377;SDS011;32083;47.360;9.650;2024-03-02T10:46:31;2.45;;;1.83;;
46377;SDS011;32083;47.360;9.650;2024-03-02T10:48:59;2.97;;;1.90;;
46377;SDS011;32083;47.360;9.650;2024-03-02T10:51:27;2.08;;;1.58;;
46377;SDS011;32083;47.360;9.650;2024-03-02T10:54:00;2.53;;;1.80;;
46377;SDS011;32083;47.360;9.650;2024-03-02T10:59:01;3.63;;;2.72;;
46377;SDS011;32083;47.360;9.650;2024-03-02T11:01:32;2.80;;;2.47;;
46377;SDS011;32083;47.360;9.650;2024-03-02T11:03:58;3.75;;;2.40;;
46377;SDS011;32083;47.360;9.650;2024-03-02T11:06:28;4.53;;;2.55;;
46377;SDS011;32083;47.360;9.650;2024-03-02T11:08:58;3.58;;;2.47;;
46377;SDS011;32083;47.360;9.650;2024-03-02T11:11:32;2.28;;;1.52;;
46377;SDS011;32083;47.360;9.650;2024-03-02T11:14:01;2.95;;;2.60;;
46377;SDS011;32083;47.360;9.650;2024-03-02T11:16:36;4.63;;;2.05;;
46377;SDS011;32083;47.360;9.650;2024-03-02T11:19:08;2.45;;;1.77;;
46377;SDS011;32083;47.360;9.650;2024-03-02T11:21:39;1.92;;;1.33;;
46377;SDS011;32083;47.360;9.650;2024-03-02T11:26:47;2.15;;;1.52;;
46377;SDS011;32083;47.360;9.650;2024-03-02T11:32:01;5.38;;;2.38;;
46377;SDS011;32083;47.360;9.650;2024-03-02T11:34:35;3.88;;;2.25;;
46377;SDS011;32083;47.360;9.650;2024-03-02T11:37:04;2.58;;;1.75;;
46377;SDS011;32083;47.360;9.650;2024-03-02T11:39:31;4.18;;;2.15;;
46377;SDS011;32083;47.360;9.650;2024-03-02T11:41:57;3.15;;;1.95;;
46377;SDS011;32083;47.360;9.650;2024-03-02T11:44:27;2.42;;;1.83;;
46377;SDS011;32083;47.360;9.650;2024-03-02T11:47:00;3.58;;;1.70;;
46377;SDS011;32083;47.360;9.650;2024-03-02T11:49:37;2.47;;;1.95;;
46377;SDS011;32083;47.360;9.650;2024-03-02T11:52:13;2.95;;;2.10;;
46377;SDS011;32083;47.360;9.650;2024-03-02T11:54:41;5.35;;;2.13;;
46377;SDS011;32083;47.360;9.650;2024-03-02T11:57:17;2.60;;;2.22;;
46377;SDS011;32083;47.360;9.650;2024-03-02T11:59:47;2.72;;;2.00;;
46377;SDS011;32083;47.360;9.650;2024-03-02T12:02:20;3.83;;;2.15;;
46377;SDS011;32083;47.360;9.650;2024-03-02T12:04:47;4.72;;;2.35;;
46377;SDS011;32083;47.360;9.650;2024-03-02T12:07:22;3.72;;;2.38;;
46377;SDS011;32083;47.360;9.650;2024-03-02T12:12:24;4.10;;;1.83;;
46377;SDS011;32083;47.360;9.650;2024-03-02T12:14:52;4.82;;;2.10;;
46377;SDS011;32083;47.360;9.650;2024-03-02T12:17:22;3.05;;;2.10;;
46377;SDS011;32083;47.360;9.650;2024-03-02T12:19:48;2.78;;;2.10;;
46377;SDS011;32083;47.360;9.650;2024-03-02T12:22:14;2.25;;;1.92;;
46377;SDS011;32083;47.360;9.650;2024-03-02T12:24:41;2.47;;;2.08;;
46377;SDS011;32083;47.360;9.650;2024-03-02T12:27:07;3.25;;;2.70;;
46377;SDS011;32083;47.360;9.650;2024-03-02T12:29:33;4.22;;;2.50;;
46377;SDS011;32083;47.360;9.650;2024-03-02T12:31:59;3.15;;;2.00;;
46377;SDS011;32083;47.360;9.650;2024-03-02T12:34:27;2.50;;;2.22;;
46377;SDS011;32083;47.360;9.650;2024-03-02T12:36:53;2.58;;;2.38;;
46377;SDS011;32083;47.360;9.650;2024-03-02T12:39:19;2.95;;;1.95;;
46377;SDS011;32083;47.360;9.650;2024-03-02T12:41:48;2.08;;;1.88;;
46377;SDS011;32083;47.360;9.650;2024-03-02T12:44:19;3.08;;;1.73;;
46377;SDS011;32083;47.360;9.650;2024-03-02T12:46:45;3.53;;;2.30;;
46377;SDS011;32083;47.360;9.650;2024-03-02T12:49:12;2.20;;;1.80;;
46377;SDS011;32083;47.360;9.650;2024-03-02T12:51:41;2.55;;;1.80;;
46377;SDS011;32083;47.360;9.650;2024-03-02T12:54:08;2.03;;;1.80;;
46377;SDS011;32083;47.360;9.650;2024-03-02T12:56:36;2.75;;;1.52;;
46377;SDS011;32083;47.360;9.650;2024-03-02T12:59:03;1.25;;;1.10;;
46377;SDS011;32083;47.360;9.650;2024-03-02T13:01:30;1.13;;;0.88;;
46377;SDS011;32083;47.360;9.650;2024-03-02T13:03:57;3.63;;;1.10;;
46377;SDS011;32083;47.360;9.650;2024-03-02T13:06:24;1.50;;;0.90;;
46377;SDS011;32083;47.360;9.650;2024-03-02T13:08:54;1.73;;;1.13;;
46377;SDS011;32083;47.360;9.650;2024-03-02T13:11:21;1.60;;;1.02;;
46377;SDS011;32083;47.360;9.650;2024-03-02T13:13:50;2.53;;;1.00;;
46377;SDS011;32083;47.360;9.650;2024-03-02T13:16:17;2.85;;;1.08;;
46377;SDS011;32083;47.360;9.650;2024-03-02T13:18:45;1.23;;;0.90;;
46377;SDS011;32083;47.360;9.650;2024-03-02T13:21:11;2.40;;;0.82;;
46377;SDS011;32083;47.360;9.650;2024-03-02T13:23:37;1.52;;;1.08;;
46377;SDS011;32083;47.360;9.650;2024-03-02T13:26:03;2.05;;;1.85;;
46377;SDS011;32083;47.360;9.650;2024-03-02T13:28:29;1.30;;;1.20;;
46377;SDS011;32083;47.360;9.650;2024-03-02T13:30:56;2.03;;;1.70;;
46377;SDS011;32083;47.360;9.650;2024-03-02T13:33:22;1.80;;;1.40;;
46377;SDS011;32083;47.360;9.650;2024-03-02T13:35:48;3.75;;;2.10;;
46377;SDS011;32083;47.360;9.650;2024-03-02T13:38:16;1.80;;;1.50;;
46377;SDS011;32083;47.360;9.650;2024-03-02T13:40:44;2.40;;;1.88;;
46377;SDS011;32083;47.360;9.650;2024-03-02T13:43:11;3.97;;;2.25;;
46377;SDS011;32083;47.360;9.650;2024-03-02T13:45:37;3.70;;;1.90;;
46377;SDS011;32083;47.360;9.650;2024-03-02T13:48:04;2.92;;;2.03;;
46377;SDS011;32083;47.360;9.650;2024-03-02T13:50:30;2.22;;;1.70;;
46377;SDS011;32083;47.360;9.650;2024-03-02T13:52:57;2.38;;;1.65;;
46377;SDS011;32083;47.360;9.650;2024-03-02T13:55:23;1.83;;;1.42;;
46377;SDS011;32083;47.360;9.650;2024-03-02T13:57:49;2.33;;;1.70;;
46377;SDS011;32083;47.360;9.650;2024-03-02T14:00:16;6.20;;;1.98;;
46377;SDS011;32083;47.360;9.650;2024-03-02T14:02:43;2.75;;;1.67;;
46377;SDS011;32083;47.360;9.650;2024-03-02T14:05:09;2.00;;;1.48;;
46377;SDS011;32083;47.360;9.650;2024-03-02T14:07:39;3.50;;;1.80;;
46377;SDS011;32083;47.360;9.650;2024-03-02T14:10:05;2.67;;;1.65;;
46377;SDS011;32083;47.360;9.650;2024-03-02T14:12:32;2.55;;;1.77;;
46377;SDS011;32083;47.360;9.650;2024-03-02T14:14:58;3.38;;;1.95;;
46377;SDS011;32083;47.360;9.650;2024-03-02T14:17:24;2.15;;;1.50;;
46377;SDS011;32083;47.360;9.650;2024-03-02T14:19:50;1.98;;;1.40;;
46377;SDS011;32083;47.360;9.650;2024-03-02T14:22:19;3.50;;;1.90;;
46377;SDS011;32083;47.360;9.650;2024-03-02T14:24:45;2.08;;;1.88;;
46377;SDS011;32083;47.360;9.650;2024-03-02T14:27:13;1.83;;;1.38;;
46377;SDS011;32083;47.360;9.650;2024-03-02T14:29:39;3.60;;;1.67;;
46377;SDS011;32083;47.360;9.650;2024-03-02T14:32:06;2.60;;;1.60;;
46377;SDS011;32083;47.360;9.650;2024-03-02T14:34:32;2.47;;;1.50;;
46377;SDS011;32083;47.360;9.650;2024-03-02T14:36:59;1.98;;;1.55;;
46377;SDS011;32083;47.360;9.650;2024-03-02T14:39:28;1.85;;;1.52;;
46377;SDS011;32083;47.360;9.650;2024-03-02T14:41:55;1.60;;;1.48;;
46377;SDS011;32083;47.360;9.650;2024-03-02T14:44:21;1.70;;;1.30;;
46377;SDS011;32083;47.360;9.650;2024-03-02T14:46:47;3.47;;;1.63;;
46377;SDS011;32083;47.360;9.650;2024-03-02T14:49:14;2.08;;;1.52;;
46377;SDS011;32083;47.360;9.650;2024-03-02T14:51:40;2.28;;;1.45;;
46377;SDS011;32083;47.360;9.650;2024-03-02T14:54:06;2.63;;;1.50;;
46377;SDS011;32083;47.360;9.650;2024-03-02T14:56:32;4.82;;;1.92;;
46377;SDS011;32083;47.360;9.650;2024-03-02T14:58:58;2.35;;;1.42;;
46377;SDS011;32083;47.360;9.650;2024-03-02T15:01:24;2.15;;;1.85;;
46377;SDS011;32083;47.360;9.650;2024-03-02T15:03:51;2.67;;;1.35;;
46377;SDS011;32083;47.360;9.650;2024-03-02T15:06:17;3.78;;;1.40;;
46377;SDS011;32083;47.360;9.650;2024-03-02T15:08:44;2.28;;;1.23;;
46377;SDS011;32083;47.360;9.650;2024-03-02T15:11:13;3.55;;;1.58;;
46377;SDS011;32083;47.360;9.650;2024-03-02T15:13:40;1.77;;;1.08;;
46377;SDS011;32083;47.360;9.650;2024-03-02T15:16:07;2.90;;;1.50;;
46377;SDS011;32083;47.360;9.650;2024-03-02T15:18:33;1.70;;;1.10;;
46377;SDS011;32083;47.360;9.650;2024-03-02T15:21:00;4.47;;;1.52;;
46377;SDS011;32083;47.360;9.650;2024-03-02T15:23:26;3.85;;;1.73;;
46377;SDS011;32083;47.360;9.650;2024-03-02T15:25:54;2.92;;;1.55;;
46377;SDS011;32083;47.360;9.650;2024-03-02T15:28:21;3.33;;;1.60;;
46377;SDS011;32083;47.360;9.650;2024-03-02T15:30:47;2.75;;;1.90;;
46377;SDS011;32083;47.360;9.650;2024-03-02T15:33:13;3.58;;;2.20;;
46377;SDS011;32083;47.360;9.650;2024-03-02T15:35:39;2.63;;;1.70;;
46377;SDS011;32083;47.360;9.650;2024-03-02T15:38:06;2.35;;;1.65;;
46377;SDS011;32083;47.360;9.650;2024-03-02T15:40:33;2.47;;;1.63;;
46377;SDS011;32083;47.360;9.650;2024-03-02T15:42:59;2.40;;;1.80;;
46377;SDS011;32083;47.360;9.650;2024-03-02T15:45:25;3.08;;;2.13;;
46377;SDS011;32083;47.360;9.650;2024-03-02T15:47:58;3.60;;;2.27;;
46377;SDS011;32083;47.360;9.650;2024-03-02T15:50:25;3.22;;;2.20;;
46377;SDS011;32083;47.360;9.650;2024-03-02T15:52:51;5.32;;;2.63;;
46377;SDS011;32083;47.360;9.650;2024-03-02T15:55:17;6.10;;;3.42;;
46377;SDS011;32083;47.360;9.650;2024-03-02T15:57:43;5.88;;;3.58;;
46377;SDS011;32083;47.360;9.650;2024-03-02T16:00:09;6.82;;;3.72;;
46377;SDS011;32083;47.360;9.650;2024-03-02T16:02:36;8.48;;;3.30;;
46377;SDS011;32083;47.360;9.650;2024-03-02T16:05:02;4.93;;;3.58;;
46377;SDS011;32083;47.360;9.650;2024-03-02T16:07:29;3.92;;;3.17;;
46377;SDS011;32083;47.360;9.650;2024-03-02T16:09:55;8.35;;;3.55;;
46377;SDS011;32083;47.360;9.650;2024-03-02T16:12:21;4.93;;;4.40;;
46377;SDS011;32083;47.360;9.650;2024-03-02T16:14:47;8.98;;;4.57;;
46377;SDS011;32083;47.360;9.650;2024-03-02T16:17:14;7.30;;;4.63;;
46377;SDS011;32083;47.360;9.650;2024-03-02T16:19:40;7.45;;;5.35;;
46377;SDS011;32083;47.360;9.650;2024-03-02T16:22:06;14.85;;;9.90;;
46377;SDS011;32083;47.360;9.650;2024-03-02T16:24:36;19.42;;;13.20;;
46377;SDS011;32083;47.360;9.650;2024-03-02T16:27:02;22.70;;;15.73;;
46377;SDS011;32083;47.360;9.650;2024-03-02T16:29:28;22.95;;;13.93;;
46377;SDS011;32083;47.360;9.650;2024-03-02T16:31:54;19.23;;;13.05;;
46377;SDS011;32083;47.360;9.650;2024-03-02T16:34:20;16.88;;;10.80;;
46377;SDS011;32083;47.360;9.650;2024-03-02T16:36:46;16.45;;;10.88;;
46377;SDS011;32083;47.360;9.650;2024-03-02T16:39:12;14.82;;;11.25;;
46377;SDS011;32083;47.360;9.650;2024-03-02T16:41:39;18.27;;;11.85;;
46377;SDS011;32083;47.360;9.650;2024-03-02T16:44:12;16.00;;;10.85;;
46377;SDS011;32083;47.360;9.650;2024-03-02T16:46:38;12.45;;;9.90;;
46377;SDS011;32083;47.360;9.650;2024-03-02T16:49:06;12.45;;;8.90;;
46377;SDS011;32083;47.360;9.650;2024-03-02T16:51:41;14.77;;;9.90;;
46377;SDS011;32083;47.360;9.650;2024-03-02T16:54:08;17.52;;;8.77;;
46377;SDS011;32083;47.360;9.650;2024-03-02T16:56:37;14.00;;;8.98;;
46377;SDS011;32083;47.360;9.650;2024-03-02T16:59:04;11.38;;;8.73;;
46377;SDS011;32083;47.360;9.650;2024-03-02T17:01:30;12.45;;;9.30;;
46377;SDS011;32083;47.360;9.650;2024-03-02T17:03:57;14.43;;;9.75;;
46377;SDS011;32083;47.360;9.650;2024-03-02T17:06:23;12.93;;;9.57;;
46377;SDS011;32083;47.360;9.650;2024-03-02T17:08:49;11.25;;;8.57;;
46377;SDS011;32083;47.360;9.650;2024-03-02T17:11:15;9.75;;;8.48;;
46377;SDS011;32083;47.360;9.650;2024-03-02T17:13:41;15.52;;;11.13;;
46377;SDS011;32083;47.360;9.650;2024-03-02T17:16:07;16.08;;;12.27;;
46377;SDS011;32083;47.360;9.650;2024-03-02T17:18:33;12.38;;;10.93;;
46377;SDS011;32083;47.360;9.650;2024-03-02T17:20:58;15.60;;;13.52;;
46377;SDS011;32083;47.360;9.650;2024-03-02T17:23:24;23.25;;;17.27;;
46377;SDS011;32083;47.360;9.650;2024-03-02T17:25:56;20.25;;;14.63;;
46377;SDS011;32083;47.360;9.650;2024-03-02T17:28:22;20.75;;;15.20;;
46377;SDS011;32083;47.360;9.650;2024-03-02T17:30:50;23.55;;;15.32;;
46377;SDS011;32083;47.360;9.650;2024-03-02T17:33:17;21.65;;;14.68;;
46377;SDS011;32083;47.360;9.650;2024-03-02T17:35:43;16.70;;;13.70;;
46377;SDS011;32083;47.360;9.650;2024-03-02T17:38:17;15.63;;;13.15;;
46377;SDS011;32083;47.360;9.650;2024-03-02T17:40:43;16.42;;;13.30;;
46377;SDS011;32083;47.360;9.650;2024-03-02T17:43:09;15.98;;;12.25;;
46377;SDS011;32083;47.360;9.650;2024-03-02T17:45:37;18.02;;;13.35;;
46377;SDS011;32083;47.360;9.650;2024-03-02T17:48:05;22.63;;;14.02;;
46377;SDS011;32083;47.360;9.650;2024-03-02T17:50:36;14.77;;;12.35;;
46377;SDS011;32083;47.360;9.650;2024-03-02T17:53:02;19.27;;;12.15;;
46377;SDS011;32083;47.360;9.650;2024-03-02T17:55:29;14.50;;;12.48;;
46377;SDS011;32083;47.360;9.650;2024-03-02T17:57:56;16.13;;;12.90;;
46377;SDS011;32083;47.360;9.650;2024-03-02T18:00:22;21.55;;;16.67;;
46377;SDS011;32083;47.360;9.650;2024-03-02T18:02:48;18.80;;;14.13;;
46377;SDS011;32083;47.360;9.650;2024-03-02T18:05:14;19.98;;;14.30;;
46377;SDS011;32083;47.360;9.650;2024-03-02T18:07:40;18.95;;;14.77;;
46377;SDS011;32083;47.360;9.650;2024-03-02T18:10:06;16.40;;;13.48;;
46377;SDS011;32083;47.360;9.650;2024-03-02T18:12:33;20.15;;;15.48;;
46377;SDS011;32083;47.360;9.650;2024-03-02T18:14:59;19.08;;;14.18;;
46377;SDS011;32083;47.360;9.650;2024-03-02T18:17:26;15.70;;;14.02;;
46377;SDS011;32083;47.360;9.650;2024-03-02T18:19:52;20.40;;;15.40;;
46377;SDS011;32083;47.360;9.650;2024-03-02T18:22:19;16.02;;;14.32;;
46377;SDS011;32083;47.360;9.650;2024-03-02T18:24:45;23.25;;;15.75;;
46377;SDS011;32083;47.360;9.650;2024-03-02T18:27:11;20.98;;;16.48;;
46377;SDS011;32083;47.360;9.650;2024-03-02T18:29:38;25.35;;;19.77;;
46377;SDS011;32083;47.360;9.650;2024-03-02T18:32:04;21.42;;;15.48;;
46377;SDS011;32083;47.360;9.650;2024-03-02T18:34:31;23.98;;;17.08;;
46377;SDS011;32083;47.360;9.650;2024-03-02T18:36:57;22.02;;;17.58;;
46377;SDS011;32083;47.360;9.650;2024-03-02T18:39:23;24.52;;;17.38;;
46377;SDS011;32083;47.360;9.650;2024-03-02T18:41:49;23.48;;;17.05;;
46377;SDS011;32083;47.360;9.650;2024-03-02T18:44:15;22.48;;;16.27;;
46377;SDS011;32083;47.360;9.650;2024-03-02T18:46:42;25.60;;;18.98;;
46377;SDS011;32083;47.360;9.650;2024-03-02T18:49:08;25.45;;;18.60;;
46377;SDS011;32083;47.360;9.650;2024-03-02T18:51:34;34.08;;;24.67;;
46377;SDS011;32083;47.360;9.650;2024-03-02T18:54:01;31.13;;;25.58;;
46377;SDS011;32083;47.360;9.650;2024-03-02T18:56:27;36.95;;;30.02;;
46377;SDS011;32083;47.360;9.650;2024-03-02T18:58:53;32.03;;;26.60;;
46377;SDS011;32083;47.360;9.650;2024-03-02T19:01:19;33.05;;;26.67;;
46377;SDS011;32083;47.360;9.650;2024-03-02T19:03:45;30.40;;;22.08;;
46377;SDS011;32083;47.360;9.650;2024-03-02T19:06:14;25.20;;;20.60;;
46377;SDS011;32083;47.360;9.650;2024-03-02T19:08:41;22.05;;;17.27;;
46377;SDS011;32083;47.360;9.650;2024-03-02T19:11:14;21.80;;;17.33;;
46377;SDS011;32083;47.360;9.650;2024-03-02T19:16:10;18.58;;;12.48;;
46377;SDS011;32083;47.360;9.650;2024-03-02T19:18:41;15.82;;;13.40;;
46377;SDS011;32083;47.360;9.650;2024-03-02T19:21:07;15.23;;;11.70;;
46377;SDS011;32083;47.360;9.650;2024-03-02T19:23:34;12.05;;;10.77;;
46377;SDS011;32083;47.360;9.650;2024-03-02T19:26:01;21.95;;;12.52;;
46377;SDS011;32083;47.360;9.650;2024-03-02T19:28:29;25.52;;;17.60;;
46377;SDS011;32083;47.360;9.650;2024-03-02T19:30:55;21.20;;;16.23;;
46377;SDS011;32083;47.360;9.650;2024-03-02T19:33:21;19.02;;;13.63;;
46377;SDS011;32083;47.360;9.650;2024-03-02T19:35:47;20.00;;;13.57;;
46377;SDS011;32083;47.360;9.650;2024-03-02T19:38:13;21.70;;;13.45;;
46377;SDS011;32083;47.360;9.650;2024-03-02T19:40:39;21.45;;;14.30;;
46377;SDS011;32083;47.360;9.650;2024-03-02T19:43:05;18.48;;;14.10;;
46377;SDS011;32083;47.360;9.650;2024-03-02T19:45:31;19.08;;;15.80;;
46377;SDS011;32083;47.360;9.650;2024-03-02T19:47:58;15.45;;;12.23;;
46377;SDS011;32083;47.360;9.650;2024-03-02T19:50:24;15.10;;;11.27;;
46377;SDS011;32083;47.360;9.650;2024-03-02T19:52:50;14.10;;;10.57;;
46377;SDS011;32083;47.360;9.650;2024-03-02T19:55:17;10.45;;;8.98;;
46377;SDS011;32083;47.360;9.650;2024-03-02T19:57:43;15.10;;;8.27;;
46377;SDS011;32083;47.360;9.650;2024-03-02T20:00:12;11.68;;;9.00;;
46377;SDS011;32083;47.360;9.650;2024-03-02T20:02:39;10.85;;;8.38;;
46377;SDS011;32083;47.360;9.650;2024-03-02T20:05:05;9.43;;;8.38;;